createdAt,value
2023-05-22T00:00:24.812Z,11.90
2023-05-22T00:02:52.490Z,11.48
2023-05-22T00:05:20.472Z,11.23
2023-05-22T00:07:47.016Z,11.75
2023-05-22T00:10:13.594Z,11.23
2023-05-22T00:12:40.274Z,11.13
2023-05-22T00:15:07.661Z,11.80
2023-05-22T00:17:34.623Z,12.27
2023-05-22T00:20:08.835Z,11.18
2023-05-22T00:22:38.082Z,11.70
2023-05-22T00:25:05.689Z,12.32
2023-05-22T00:27:32.995Z,12.13
2023-05-22T00:29:59.982Z,11.27
2023-05-22T00:32:27.147Z,12.23
2023-05-22T00:34:53.721Z,11.83
2023-05-22T00:37:20.332Z,12.70
2023-05-22T00:39:47.015Z,12.77
2023-05-22T00:42:13.730Z,13.02
2023-05-22T00:44:41.779Z,13.68
2023-05-22T00:47:08.214Z,12.63
2023-05-22T00:49:34.693Z,14.35
2023-05-22T00:52:01.534Z,13.32
2023-05-22T00:54:29.134Z,13.50
2023-05-22T00:56:55.734Z,13.73
2023-05-22T00:59:22.387Z,13.57
2023-05-22T01:01:49.185Z,14.02
2023-05-22T01:04:18.408Z,13.93
2023-05-22T01:06:47.409Z,13.38
2023-05-22T01:09:17.244Z,13.48
2023-05-22T01:12:01.661Z,13.13
2023-05-22T01:14:44.104Z,13.80
2023-05-22T01:17:38.044Z,13.57
2023-05-22T01:20:10.693Z,14.13
2023-05-22T01:22:43.361Z,13.27
2023-05-22T01:25:29.029Z,14.67
2023-05-22T01:28:33.303Z,14.23
2023-05-22T01:31:09.169Z,13.75
2023-05-22T01:33:45.550Z,14.05
2023-05-22T01:36:15.696Z,13.93
2023-05-22T01:38:43.168Z,14.23
2023-05-22T01:41:09.898Z,13.85
2023-05-22T01:43:36.771Z,13.90
2023-05-22T01:46:03.976Z,14.10
2023-05-22T01:48:30.457Z,13.45
2023-05-22T01:51:05.419Z,13.87
2023-05-22T01:53:45.036Z,13.45
2023-05-22T01:56:20.923Z,13.13
2023-05-22T01:58:55.263Z,14.35
2023-05-22T02:01:22.934Z,13.50
2023-05-22T02:03:56.549Z,13.83
2023-05-22T02:06:25.850Z,13.50
2023-05-22T02:08:53.512Z,13.73
2023-05-22T02:11:22.597Z,13.73
2023-05-22T02:13:49.529Z,13.07
2023-05-22T02:16:16.767Z,14.10
2023-05-22T02:18:43.705Z,14.48
2023-05-22T02:21:10.319Z,13.85
2023-05-22T02:23:37.917Z,13.80
2023-05-22T02:26:05.135Z,14.10
2023-05-22T02:28:31.850Z,13.73
2023-05-22T02:30:58.368Z,14.50
2023-05-22T02:33:24.876Z,14.45
2023-05-22T02:35:51.375Z,13.45
2023-05-22T02:38:17.836Z,13.02
2023-05-22T02:40:44.407Z,12.80
2023-05-22T02:43:10.883Z,13.43
2023-05-22T02:45:37.320Z,12.82
2023-05-22T02:48:04.125Z,12.57
2023-05-22T02:50:30.608Z,12.57
2023-05-22T02:52:57.050Z,12.70
2023-05-22T02:55:23.556Z,12.68
2023-05-22T02:57:49.995Z,12.52
2023-05-22T03:00:17.016Z,13.43
2023-05-22T03:02:43.572Z,11.80
2023-05-22T03:05:10.236Z,13.50
2023-05-22T03:07:37.091Z,12.45
2023-05-22T03:10:03.739Z,11.68
2023-05-22T03:12:30.509Z,11.93
2023-05-22T03:14:57.066Z,11.02
2023-05-22T03:17:23.549Z,12.17
2023-05-22T03:19:50.037Z,12.85
2023-05-22T03:22:18.555Z,13.88
2023-05-22T03:24:45.774Z,14.27
2023-05-22T03:27:15.994Z,13.55
2023-05-22T03:29:42.625Z,13.10
2023-05-22T03:32:09.110Z,14.52
2023-05-22T03:34:37.054Z,14.23
2023-05-22T03:37:03.674Z,14.02
2023-05-22T03:39:30.330Z,13.23
2023-05-22T03:41:56.945Z,12.33
2023-05-22T03:44:23.467Z,13.10
2023-05-22T03:46:49.948Z,12.73
2023-05-22T03:49:16.460Z,12.60
2023-05-22T03:51:43.056Z,13.20
2023-05-22T03:54:09.520Z,14.17
2023-05-22T03:56:36.023Z,13.30
2023-05-22T03:59:02.617Z,13.35
2023-05-22T04:01:29.826Z,12.70
2023-05-22T04:03:56.374Z,13.18
2023-05-22T04:06:23.433Z,12.63
2023-05-22T04:08:49.994Z,12.68
2023-05-22T04:11:16.617Z,12.30
2023-05-22T04:13:43.275Z,13.10
2023-05-22T04:16:10.411Z,12.85
2023-05-22T04:18:36.965Z,12.80
2023-05-22T04:21:03.914Z,13.70
2023-05-22T04:23:30.555Z,13.50
2023-05-22T04:25:58.260Z,12.43
2023-05-22T04:28:24.770Z,12.60
2023-05-22T04:30:51.358Z,13.20
2023-05-22T04:33:18.073Z,12.05
2023-05-22T04:35:44.683Z,12.57
2023-05-22T04:38:11.240Z,12.38
2023-05-22T04:40:37.920Z,13.02
2023-05-22T04:43:04.797Z,13.87
2023-05-22T04:45:31.292Z,13.52
2023-05-22T04:47:58.103Z,14.02
2023-05-22T04:50:25.011Z,13.15
2023-05-22T04:52:51.616Z,14.65
2023-05-22T04:55:19.086Z,14.10
2023-05-22T04:57:45.897Z,15.43
2023-05-22T05:00:14.410Z,15.63
2023-05-22T05:02:41.167Z,15.07
2023-05-22T05:05:08.094Z,14.57
2023-05-22T05:07:37.581Z,15.80
2023-05-22T05:10:04.436Z,15.35
2023-05-22T05:12:30.903Z,16.25
2023-05-22T05:14:57.317Z,15.20
2023-05-22T05:17:23.961Z,15.45
2023-05-22T05:19:50.451Z,14.97
2023-05-22T05:22:16.986Z,14.38
2023-05-22T05:24:43.494Z,15.25
2023-05-22T05:27:10.089Z,15.00
2023-05-22T05:29:36.910Z,15.13
2023-05-22T05:32:04.070Z,15.17
2023-05-22T05:34:30.702Z,15.07
2023-05-22T05:36:57.386Z,14.65
2023-05-22T05:39:23.934Z,15.32
2023-05-22T05:41:50.531Z,14.48
2023-05-22T05:44:17.072Z,14.73
2023-05-22T05:46:43.624Z,14.27
2023-05-22T05:49:11.921Z,13.68
2023-05-22T05:51:38.840Z,14.63
2023-05-22T05:54:05.924Z,14.13
2023-05-22T05:56:32.884Z,15.30
2023-05-22T05:58:59.426Z,14.38
2023-05-22T06:01:26.951Z,14.30
2023-05-22T06:03:53.836Z,14.23
2023-05-22T06:06:20.699Z,14.55
2023-05-22T06:08:47.243Z,15.10
2023-05-22T06:11:13.765Z,14.60
2023-05-22T06:13:40.313Z,15.27
2023-05-22T06:16:07.167Z,13.55
2023-05-22T06:18:33.796Z,14.93
2023-05-22T06:21:00.286Z,15.07
2023-05-22T06:23:26.743Z,15.52
2023-05-22T06:25:53.982Z,14.73
2023-05-22T06:28:20.513Z,13.85
2023-05-22T06:30:47.292Z,14.52
2023-05-22T06:33:14.537Z,14.67
2023-05-22T06:35:42.030Z,14.23
2023-05-22T06:38:08.516Z,14.13
2023-05-22T06:40:34.996Z,13.40
2023-05-22T06:43:01.785Z,13.88
2023-05-22T06:45:28.260Z,14.50
2023-05-22T06:47:55.046Z,15.35
2023-05-22T06:50:22.297Z,13.98
2023-05-22T06:52:49.348Z,14.43
2023-05-22T06:55:16.379Z,13.23
2023-05-22T06:57:42.873Z,14.17
2023-05-22T07:00:12.188Z,13.70
2023-05-22T07:02:39.606Z,13.98
2023-05-22T07:05:06.816Z,14.27
2023-05-22T07:07:33.569Z,13.45
2023-05-22T07:10:00.228Z,13.93
2023-05-22T07:12:27.658Z,13.13
2023-05-22T07:14:54.780Z,14.02
2023-05-22T07:17:21.860Z,13.63
2023-05-22T07:19:48.968Z,13.45
2023-05-22T07:22:15.741Z,12.97
2023-05-22T07:24:43.236Z,13.88
2023-05-22T07:27:11.242Z,12.57
2023-05-22T07:29:38.065Z,12.43
2023-05-22T07:32:04.920Z,11.95
2023-05-22T07:34:34.357Z,12.07
2023-05-22T07:37:07.166Z,12.50
2023-05-22T07:39:33.727Z,12.68
2023-05-22T07:42:01.558Z,11.88
2023-05-22T07:44:28.537Z,12.70
2023-05-22T07:46:55.751Z,12.27
2023-05-22T07:49:23.605Z,12.88
2023-05-22T07:51:50.108Z,12.85
2023-05-22T07:54:18.086Z,12.48
2023-05-22T07:56:45.779Z,13.70
2023-05-22T07:59:12.622Z,12.87
2023-05-22T08:01:41.687Z,13.18
2023-05-22T08:04:08.743Z,13.55
2023-05-22T08:06:35.507Z,13.05
2023-05-22T08:09:02.646Z,12.27
2023-05-22T08:11:29.197Z,11.70
2023-05-22T08:13:56.226Z,12.20
2023-05-22T08:16:23.227Z,12.93
2023-05-22T08:18:50.295Z,12.93
2023-05-22T08:21:16.900Z,14.15
2023-05-22T08:23:43.498Z,11.67
2023-05-22T08:26:10.007Z,9.73
2023-05-22T08:28:37.135Z,9.10
2023-05-22T08:31:03.724Z,11.32
2023-05-22T08:33:30.268Z,12.38
2023-05-22T08:35:56.769Z,11.17
2023-05-22T08:38:23.222Z,12.18
2023-05-22T08:40:51.040Z,12.48
2023-05-22T08:43:20.597Z,11.90
2023-05-22T08:45:55.982Z,11.43
2023-05-22T08:48:23.797Z,10.97
2023-05-22T08:50:58.181Z,8.80
2023-05-22T08:53:25.751Z,10.88
2023-05-22T08:55:53.833Z,11.27
2023-05-22T08:58:20.794Z,11.30
2023-05-22T09:00:48.121Z,11.30
2023-05-22T09:03:15.470Z,10.80
2023-05-22T09:05:42.321Z,11.20
2023-05-22T09:08:19.797Z,11.70
2023-05-22T09:10:47.333Z,11.40
2023-05-22T09:13:25.159Z,11.60
2023-05-22T09:15:51.651Z,11.90
2023-05-22T09:18:18.263Z,12.80
2023-05-22T09:20:45.069Z,11.90
2023-05-22T09:23:20.243Z,11.55
2023-05-22T09:25:47.692Z,11.53
2023-05-22T09:28:14.451Z,12.50
2023-05-22T09:30:42.617Z,13.90
2023-05-22T09:33:12.849Z,13.95
2023-05-22T09:35:39.779Z,12.05
2023-05-22T09:38:06.552Z,12.57
2023-05-22T09:40:35.268Z,11.98
2023-05-22T09:43:07.645Z,14.35
2023-05-22T09:45:38.240Z,14.43
2023-05-22T09:48:05.785Z,14.73
2023-05-22T09:50:32.860Z,13.87
2023-05-22T09:53:04.402Z,13.10
2023-05-22T09:55:32.116Z,11.27
2023-05-22T09:58:04.111Z,12.85
2023-05-22T10:00:32.700Z,11.98
2023-05-22T10:03:05.979Z,11.53
2023-05-22T10:05:32.970Z,13.10
2023-05-22T10:08:09.129Z,12.60
2023-05-22T10:10:36.852Z,11.77
2023-05-22T10:13:08.048Z,12.57
2023-05-22T10:15:35.891Z,11.27
2023-05-22T10:18:03.152Z,11.57
2023-05-22T10:20:30.312Z,12.70
2023-05-22T10:22:57.149Z,11.88
2023-05-22T10:25:23.776Z,11.07
2023-05-22T10:27:53.658Z,11.27
2023-05-22T10:30:36.502Z,11.27
2023-05-22T10:33:14.519Z,10.85
2023-05-22T10:35:52.826Z,10.40
2023-05-22T10:38:50.571Z,11.02
2023-05-22T10:41:18.207Z,8.83
2023-05-22T10:43:48.736Z,9.85
2023-05-22T10:46:15.532Z,8.57
2023-05-22T10:48:47.442Z,9.15
2023-05-22T10:51:18.068Z,9.85
2023-05-22T10:53:47.377Z,9.73
2023-05-22T10:56:15.532Z,9.52
2023-05-22T10:58:56.815Z,10.45
2023-05-22T11:01:25.956Z,9.93
2023-05-22T11:04:00.344Z,10.57
2023-05-22T11:06:43.072Z,11.03
2023-05-22T11:09:32.465Z,10.15
2023-05-22T11:12:20.532Z,10.30
2023-05-22T11:14:50.697Z,10.32
2023-05-22T11:17:28.099Z,9.75
2023-05-22T11:20:18.464Z,9.73
2023-05-22T11:22:55.578Z,10.07
2023-05-22T11:25:22.781Z,10.02
2023-05-22T11:27:49.632Z,10.38
2023-05-22T11:30:17.213Z,10.38
2023-05-22T11:32:46.133Z,9.70
2023-05-22T11:35:17.921Z,8.43
2023-05-22T11:37:45.092Z,9.38
2023-05-22T11:40:17.187Z,9.15
2023-05-22T11:42:44.243Z,9.35
2023-05-22T11:45:11.347Z,9.07
2023-05-22T11:47:37.972Z,8.82
2023-05-22T11:50:06.665Z,8.75
2023-05-22T11:52:34.551Z,8.68
2023-05-22T11:55:01.466Z,8.70
2023-05-22T11:57:28.374Z,7.70
2023-05-22T11:59:54.819Z,7.50
2023-05-22T12:02:21.435Z,7.60
2023-05-22T12:04:47.906Z,7.32
2023-05-22T12:07:14.374Z,7.55
2023-05-22T12:09:42.520Z,6.77
2023-05-22T12:12:11.413Z,7.63
2023-05-22T12:14:38.119Z,7.65
2023-05-22T12:17:04.770Z,6.75
2023-05-22T12:19:31.399Z,7.75
2023-05-22T12:21:58.774Z,7.83
2023-05-22T12:24:25.639Z,9.32
2023-05-22T12:26:52.990Z,8.85
2023-05-22T12:29:22.349Z,8.70
2023-05-22T12:31:49.277Z,7.97
2023-05-22T12:34:18.394Z,6.53
2023-05-22T12:36:47.102Z,7.00
2023-05-22T12:39:18.886Z,7.78
2023-05-22T12:41:46.428Z,7.32
2023-05-22T12:44:15.597Z,7.47
2023-05-22T12:46:42.255Z,7.17
2023-05-22T12:49:08.970Z,7.50
2023-05-22T12:51:35.431Z,7.15
2023-05-22T12:54:02.623Z,6.82
2023-05-22T12:56:29.923Z,7.78
2023-05-22T12:58:57.525Z,7.90
2023-05-22T13:01:24.657Z,8.45
2023-05-22T13:03:52.716Z,8.98
2023-05-22T13:06:19.885Z,9.18
2023-05-22T13:08:46.370Z,9.55
2023-05-22T13:11:12.858Z,8.23
2023-05-22T13:13:39.859Z,9.50
2023-05-22T13:16:06.368Z,10.70
2023-05-22T13:18:32.798Z,8.68
2023-05-22T13:21:00.248Z,9.57
2023-05-22T13:23:26.800Z,9.90
2023-05-22T13:25:53.321Z,8.18
2023-05-22T13:28:19.830Z,9.07
2023-05-22T13:30:46.254Z,8.63
2023-05-22T13:33:13.809Z,8.35
2023-05-22T13:35:40.596Z,7.57
2023-05-22T13:38:07.699Z,6.97
2023-05-22T13:40:34.184Z,7.20
2023-05-22T13:43:00.691Z,7.05
2023-05-22T13:45:27.789Z,7.55
2023-05-22T13:47:54.307Z,7.30
2023-05-22T13:50:20.798Z,7.32
2023-05-22T13:52:47.399Z,6.90
2023-05-22T13:55:13.847Z,6.20
2023-05-22T13:57:40.661Z,7.13
2023-05-22T14:00:08.963Z,6.20
2023-05-22T14:02:35.672Z,6.55
2023-05-22T14:05:02.267Z,6.53
2023-05-22T14:07:28.728Z,6.43
2023-05-22T14:09:55.222Z,6.75
2023-05-22T14:12:21.747Z,5.93
2023-05-22T14:14:48.353Z,5.97
2023-05-22T14:17:14.822Z,6.15
2023-05-22T14:19:41.345Z,5.70
2023-05-22T14:22:07.978Z,5.70
2023-05-22T14:24:34.500Z,5.60
2023-05-22T14:27:00.871Z,5.60
2023-05-22T14:29:28.364Z,5.70
2023-05-22T14:32:01.129Z,5.47
2023-05-22T14:34:27.551Z,6.45
2023-05-22T14:36:56.438Z,5.17
2023-05-22T14:39:24.585Z,5.75
2023-05-22T14:41:54.540Z,5.78
2023-05-22T14:44:22.527Z,5.45
2023-05-22T14:46:51.039Z,6.00
2023-05-22T14:49:17.690Z,6.50
2023-05-22T14:51:48.117Z,5.45
2023-05-22T14:54:17.957Z,5.60
2023-05-22T14:56:45.132Z,5.25
2023-05-22T14:59:11.976Z,5.28
2023-05-22T15:01:39.022Z,5.20
2023-05-22T15:04:06.027Z,4.72
2023-05-22T15:06:32.521Z,5.30
2023-05-22T15:08:58.953Z,5.60
2023-05-22T15:11:26.101Z,5.22
2023-05-22T15:13:54.332Z,4.87
2023-05-22T15:16:22.471Z,4.63
2023-05-22T15:18:49.159Z,4.13
2023-05-22T15:21:15.905Z,3.63
2023-05-22T15:23:42.914Z,4.40
2023-05-22T15:26:09.560Z,4.20
2023-05-22T15:28:36.067Z,3.90
2023-05-22T15:31:02.534Z,3.45
2023-05-22T15:33:29.041Z,3.53
2023-05-22T15:35:55.547Z,3.60
2023-05-22T15:38:22.039Z,3.60
2023-05-22T15:40:48.482Z,3.40
2023-05-22T15:43:14.995Z,3.10
2023-05-22T15:45:42.634Z,2.72
2023-05-22T15:48:09.452Z,3.05
2023-05-22T15:50:36.009Z,2.77
2023-05-22T15:53:02.559Z,2.50
2023-05-22T15:55:29.223Z,3.85
2023-05-22T15:57:55.789Z,2.40
2023-05-22T16:00:22.402Z,2.10
2023-05-22T16:02:49.348Z,2.40
2023-05-22T16:05:15.944Z,2.03
2023-05-22T16:07:42.516Z,2.40
2023-05-22T16:10:09.405Z,2.50
2023-05-22T16:12:35.953Z,2.30
2023-05-22T16:15:04.472Z,2.40
2023-05-22T16:17:32.529Z,2.30
2023-05-22T16:19:58.997Z,2.50
2023-05-22T16:22:33.015Z,2.65
2023-05-22T16:25:03.059Z,2.70
2023-05-22T16:27:29.579Z,2.50
2023-05-22T16:29:56.067Z,2.38
2023-05-22T16:32:22.540Z,2.90
2023-05-22T16:34:49.140Z,2.65
2023-05-22T16:37:15.869Z,2.60
2023-05-22T16:39:45.861Z,2.47
2023-05-22T16:42:13.037Z,2.40
2023-05-22T16:44:39.489Z,3.00
2023-05-22T16:47:06.070Z,2.92
2023-05-22T16:49:32.671Z,2.42
2023-05-22T16:51:59.125Z,2.80
2023-05-22T16:54:25.660Z,2.83
2023-05-22T16:56:52.172Z,2.88
2023-05-22T16:59:19.593Z,2.53
2023-05-22T17:01:46.701Z,2.40
2023-05-22T17:04:15.606Z,2.20
2023-05-22T17:06:43.321Z,3.10
2023-05-22T17:09:10.304Z,2.67
2023-05-22T17:11:37.704Z,2.38
2023-05-22T17:14:04.728Z,2.75
2023-05-22T17:16:31.574Z,2.77
2023-05-22T17:18:58.142Z,3.33
2023-05-22T17:21:24.712Z,3.47
2023-05-22T17:23:51.140Z,3.17
2023-05-22T17:26:17.564Z,3.42
2023-05-22T17:28:44.099Z,3.70
2023-05-22T17:31:10.781Z,3.28
2023-05-22T17:33:37.227Z,3.50
2023-05-22T17:36:03.929Z,3.38
2023-05-22T17:38:30.365Z,3.60
2023-05-22T17:40:56.855Z,3.27
2023-05-22T17:43:23.376Z,4.00
2023-05-22T17:45:50.577Z,3.60
2023-05-22T17:48:23.249Z,3.88
2023-05-22T17:50:49.851Z,3.83
2023-05-22T17:53:20.539Z,3.90
2023-05-22T17:55:48.488Z,3.70
2023-05-22T17:58:16.319Z,4.05
2023-05-22T18:00:43.197Z,3.85
2023-05-22T18:03:09.678Z,4.00
2023-05-22T18:05:36.204Z,3.70
2023-05-22T18:08:02.757Z,4.30
2023-05-22T18:10:29.368Z,3.75
2023-05-22T18:12:55.998Z,4.03
2023-05-22T18:15:22.558Z,4.22
2023-05-22T18:17:49.024Z,3.97
2023-05-22T18:20:16.720Z,4.38
2023-05-22T18:22:43.280Z,4.50
2023-05-22T18:25:09.924Z,4.47
2023-05-22T18:27:36.707Z,4.50
2023-05-22T18:30:05.167Z,4.67
2023-05-22T18:32:32.067Z,4.60
2023-05-22T18:34:59.693Z,5.00
2023-05-22T18:37:26.663Z,5.00
2023-05-22T18:39:53.072Z,4.47
2023-05-22T18:42:19.669Z,4.03
2023-05-22T18:44:48.209Z,4.63
2023-05-22T18:47:15.621Z,4.47
2023-05-22T18:49:42.276Z,4.47
2023-05-22T18:52:08.828Z,4.50
2023-05-22T18:54:35.287Z,4.00
2023-05-22T18:57:01.715Z,4.35
2023-05-22T18:59:28.146Z,5.57
2023-05-22T19:01:54.605Z,4.85
2023-05-22T19:04:21.139Z,4.10
2023-05-22T19:06:47.685Z,4.70
2023-05-22T19:09:14.202Z,4.95
2023-05-22T19:11:40.766Z,5.25
2023-05-22T19:14:07.218Z,4.65
2023-05-22T19:16:33.655Z,5.07
2023-05-22T19:19:00.225Z,4.87
2023-05-22T19:21:26.706Z,5.03
2023-05-22T19:23:53.170Z,5.10
2023-05-22T19:26:19.716Z,5.10
2023-05-22T19:28:46.222Z,4.70
2023-05-22T19:31:12.753Z,4.80
2023-05-22T19:33:39.353Z,4.82
2023-05-22T19:36:06.648Z,5.30
2023-05-22T19:38:33.338Z,4.95
2023-05-22T19:40:59.807Z,5.30
2023-05-22T19:43:26.443Z,4.80
2023-05-22T19:45:53.480Z,5.00
2023-05-22T19:48:19.991Z,4.85
2023-05-22T19:50:46.409Z,5.43
2023-05-22T19:53:12.882Z,6.03
2023-05-22T19:55:39.387Z,5.50
2023-05-22T19:58:06.010Z,5.93
2023-05-22T20:00:33.376Z,5.75
2023-05-22T20:03:00.008Z,6.00
2023-05-22T20:05:26.580Z,5.97
2023-05-22T20:07:53.089Z,6.23
2023-05-22T20:10:19.838Z,5.72
2023-05-22T20:12:47.138Z,6.50
2023-05-22T20:15:14.998Z,5.95
2023-05-22T20:17:42.189Z,6.07
2023-05-22T20:20:09.376Z,6.30
2023-05-22T20:22:36.114Z,5.65
2023-05-22T20:25:05.202Z,6.00
2023-05-22T20:27:31.948Z,6.53
2023-05-22T20:30:00.071Z,6.00
2023-05-22T20:32:26.975Z,6.30
2023-05-22T20:34:55.253Z,7.10
2023-05-22T20:37:22.183Z,6.57
2023-05-22T20:39:50.015Z,6.88
2023-05-22T20:42:19.235Z,7.28
2023-05-22T20:44:46.227Z,6.13
2023-05-22T20:47:12.777Z,5.82
2023-05-22T20:49:39.239Z,5.20
2023-05-22T20:52:05.813Z,4.88
2023-05-22T20:54:34.467Z,4.65
2023-05-22T20:57:01.714Z,4.53
2023-05-22T20:59:28.998Z,3.90
2023-05-22T21:01:56.973Z,4.13
2023-05-22T21:04:24.026Z,3.65
2023-05-22T21:06:50.961Z,4.00
2023-05-22T21:09:17.620Z,3.90
2023-05-22T21:11:44.137Z,3.22
2023-05-22T21:14:10.613Z,3.40
2023-05-22T21:16:39.282Z,2.65
2023-05-22T21:19:07.161Z,2.88
2023-05-22T21:21:33.773Z,2.80
2023-05-22T21:24:00.320Z,2.60
2023-05-22T21:26:27.453Z,2.80
2023-05-22T21:28:54.624Z,2.75
2023-05-22T21:31:21.203Z,2.60
2023-05-22T21:33:47.725Z,2.77
2023-05-22T21:36:14.169Z,2.97
2023-05-22T21:38:40.563Z,2.70
2023-05-22T21:41:07.016Z,2.92
2023-05-22T21:43:33.465Z,3.70
2023-05-22T21:45:59.968Z,3.33
2023-05-22T21:48:26.416Z,3.03
2023-05-22T21:50:52.885Z,2.97
2023-05-22T21:53:19.546Z,3.10
2023-05-22T21:55:45.971Z,3.38
2023-05-22T21:58:13.578Z,2.90
2023-05-22T22:00:41.113Z,2.78
2023-05-22T22:03:07.917Z,3.35
2023-05-22T22:05:35.820Z,3.33
2023-05-22T22:08:02.427Z,3.05
2023-05-22T22:10:28.908Z,3.33
2023-05-22T22:12:55.335Z,3.10
2023-05-22T22:15:21.823Z,3.55
2023-05-22T22:17:48.344Z,3.67
2023-05-22T22:20:14.925Z,3.92
2023-05-22T22:22:41.359Z,3.73
2023-05-22T22:25:08.277Z,3.53
2023-05-22T22:27:34.710Z,3.80
2023-05-22T22:30:01.960Z,3.55
2023-05-22T22:32:28.500Z,3.70
2023-05-22T22:34:55.118Z,3.80
2023-05-22T22:37:21.916Z,4.00
2023-05-22T22:39:48.417Z,4.07
2023-05-22T22:42:14.902Z,4.10
2023-05-22T22:44:41.393Z,4.30
2023-05-22T22:47:07.844Z,4.97
2023-05-22T22:49:34.352Z,4.70
2023-05-22T22:52:00.763Z,5.10
2023-05-22T22:54:27.297Z,5.00
2023-05-22T22:56:53.888Z,5.15
2023-05-22T22:59:20.302Z,5.70
2023-05-22T23:01:46.924Z,5.20
2023-05-22T23:04:14.022Z,4.93
2023-05-22T23:06:43.642Z,5.07
2023-05-22T23:09:11.188Z,4.88
2023-05-22T23:11:38.717Z,5.00
2023-05-22T23:14:08.380Z,5.10
2023-05-22T23:16:40.809Z,5.60
2023-05-22T23:19:08.843Z,5.20
2023-05-22T23:21:35.494Z,5.85
2023-05-22T23:24:06.594Z,5.53
2023-05-22T23:26:33.860Z,5.47
2023-05-22T23:29:00.488Z,5.80
2023-05-22T23:31:30.527Z,6.25
2023-05-22T23:33:57.876Z,5.90
2023-05-22T23:36:24.851Z,6.07
2023-05-22T23:38:51.536Z,6.15
2023-05-22T23:41:18.586Z,6.22
2023-05-22T23:43:46.134Z,6.72
2023-05-22T23:46:13.911Z,6.07
2023-05-22T23:48:41.614Z,5.67
2023-05-22T23:51:14.414Z,6.13
2023-05-22T23:53:42.070Z,5.82
2023-05-22T23:56:08.827Z,5.35
2023-05-22T23:58:35.401Z,4.68
